sensor_id;sensor_type;location;lat;lon;timestamp;pressure;altitude;pressure_sealevel;temperature;humidity
62617;BME280;62539;51.190;6.808;2023-05-25T00:01:04;102163.50;;;20.17;50.20
62617;BME280;62539;51.190;6.808;2023-05-25T00:03:30;102167.06;;;20.16;50.02
62617;BME280;62539;51.190;6.808;2023-05-25T00:05:55;102166.22;;;20.14;50.03
62617;BME280;62539;51.190;6.808;2023-05-25T00:08:22;102167.09;;;20.15;50.12
62617;BME280;62539;51.190;6.808;2023-05-25T00:10:48;102166.25;;;20.12;50.04
62617;BME280;62539;51.190;6.808;2023-05-25T00:13:13;102166.25;;;20.12;50.15
62617;BME280;62539;51.190;6.808;2023-05-25T00:15:39;102156.63;;;20.11;50.18
62617;BME280;62539;51.190;6.808;2023-05-25T00:18:04;102155.72;;;20.11;50.30
62617;BME280;62539;51.190;6.808;2023-05-25T00:20:30;102156.63;;;20.10;50.37
62617;BME280;62539;51.190;6.808;2023-05-25T00:22:57;102159.25;;;20.10;50.41
62617;BME280;62539;51.190;6.808;2023-05-25T00:25:23;102153.16;;;20.08;50.56
62617;BME280;62539;51.190;6.808;2023-05-25T00:27:48;102155.78;;;20.08;50.33
62617;BME280;62539;51.190;6.808;2023-05-25T00:30:14;102157.59;;;20.06;50.42
62617;BME280;62539;51.190;6.808;2023-05-25T00:32:39;102161.94;;;20.07;50.40
62617;BME280;62539;51.190;6.808;2023-05-25T00:35:05;102153.22;;;20.05;50.33
62617;BME280;62539;51.190;6.808;2023-05-25T00:37:32;102150.63;;;20.03;50.35
62617;BME280;62539;51.190;6.808;2023-05-25T00:39:57;102145.34;;;20.03;50.29
62617;BME280;62539;51.190;6.808;2023-05-25T00:42:23;102149.75;;;20.03;50.36
62617;BME280;62539;51.190;6.808;2023-05-25T00:44:48;102146.25;;;20.01;50.51
62617;BME280;62539;51.190;6.808;2023-05-25T00:47:15;102151.53;;;20.01;50.30
62617;BME280;62539;51.190;6.808;2023-05-25T00:49:41;102149.78;;;20.00;50.48
62617;BME280;62539;51.190;6.808;2023-05-25T00:52:07;102141.94;;;19.98;50.41
62617;BME280;62539;51.190;6.808;2023-05-25T00:54:36;102146.31;;;19.97;50.21
62617;BME280;62539;51.190;6.808;2023-05-25T00:57:03;102141.06;;;19.97;50.54
62617;BME280;62539;51.190;6.808;2023-05-25T00:59:36;102149.00;;;19.96;50.41
62617;BME280;62539;51.190;6.808;2023-05-25T01:02:11;102147.25;;;19.95;50.35
62617;BME280;62539;51.190;6.808;2023-05-25T01:04:44;102147.28;;;19.93;50.33
62617;BME280;62539;51.190;6.808;2023-05-25T01:07:22;102147.31;;;19.92;50.45
62617;BME280;62539;51.190;6.808;2023-05-25T01:10:01;102151.69;;;19.91;50.39
62617;BME280;62539;51.190;6.808;2023-05-25T01:12:31;102157.88;;;19.90;50.51
62617;BME280;62539;51.190;6.808;2023-05-25T01:15:03;102150.88;;;19.89;50.41
62617;BME280;62539;51.190;6.808;2023-05-25T01:17:29;102150.88;;;19.88;50.48
62617;BME280;62539;51.190;6.808;2023-05-25T01:19:56;102149.13;;;19.87;50.61
62617;BME280;62539;51.190;6.808;2023-05-25T01:22:34;102156.16;;;19.86;50.42
62617;BME280;62539;51.190;6.808;2023-05-25T01:25:19;102166.72;;;19.85;50.40
62617;BME280;62539;51.190;6.808;2023-05-25T01:27:51;102158.81;;;19.85;50.50
62617;BME280;62539;51.190;6.808;2023-05-25T01:30:24;102167.63;;;19.82;50.53
62617;BME280;62539;51.190;6.808;2023-05-25T01:32:52;102156.25;;;19.81;50.57
62617;BME280;62539;51.190;6.808;2023-05-25T01:35:18;102158.91;;;19.80;50.51
62617;BME280;62539;51.190;6.808;2023-05-25T01:37:46;102159.78;;;19.80;50.51
62617;BME280;62539;51.190;6.808;2023-05-25T01:40:13;102165.06;;;19.79;50.57
62617;BME280;62539;51.190;6.808;2023-05-25T01:42:40;102165.94;;;19.78;50.56
62617;BME280;62539;51.190;6.808;2023-05-25T01:45:06;102165.94;;;19.78;50.54
62617;BME280;62539;51.190;6.808;2023-05-25T01:47:47;102157.22;;;19.76;50.51
62617;BME280;62539;51.190;6.808;2023-05-25T01:50:48;102159.88;;;19.74;50.48
62617;BME280;62539;51.190;6.808;2023-05-25T01:53:22;102157.25;;;19.74;50.51
62617;BME280;62539;51.190;6.808;2023-05-25T01:55:57;102170.44;;;19.73;50.67
62617;BME280;62539;51.190;6.808;2023-05-25T01:58:27;102164.31;;;19.72;50.59
62617;BME280;62539;51.190;6.808;2023-05-25T02:01:01;102164.31;;;19.71;50.65
62617;BME280;62539;51.190;6.808;2023-05-25T02:03:26;102164.31;;;19.71;50.61
62617;BME280;62539;51.190;6.808;2023-05-25T02:05:52;102164.31;;;19.71;50.70
62617;BME280;62539;51.190;6.808;2023-05-25T02:08:18;102163.47;;;19.68;50.62
62617;BME280;62539;51.190;6.808;2023-05-25T02:10:45;102159.09;;;19.67;50.71
62617;BME280;62539;51.190;6.808;2023-05-25T02:13:10;102163.53;;;19.67;50.68
62617;BME280;62539;51.190;6.808;2023-05-25T02:15:36;102167.06;;;19.66;50.69
62617;BME280;62539;51.190;6.808;2023-05-25T02:18:01;102159.16;;;19.66;50.58
62617;BME280;62539;51.190;6.808;2023-05-25T02:20:27;102155.69;;;19.64;50.65
62617;BME280;62539;51.190;6.808;2023-05-25T02:22:52;102159.16;;;19.64;50.65
62617;BME280;62539;51.190;6.808;2023-05-25T02:25:17;102159.19;;;19.63;50.49
62617;BME280;62539;51.190;6.808;2023-05-25T02:27:44;102155.69;;;19.62;50.61
62617;BME280;62539;51.190;6.808;2023-05-25T02:30:09;102163.59;;;19.62;50.54
62617;BME280;62539;51.190;6.808;2023-05-25T02:32:35;102157.47;;;19.60;50.63
62617;BME280;62539;51.190;6.808;2023-05-25T02:35:01;102154.88;;;19.59;50.74
62617;BME280;62539;51.190;6.808;2023-05-25T02:37:27;102164.53;;;19.60;50.52
62617;BME280;62539;51.190;6.808;2023-05-25T02:39:52;102159.25;;;19.58;50.63
62617;BME280;62539;51.190;6.808;2023-05-25T02:42:18;102158.41;;;19.58;50.71
62617;BME280;62539;51.190;6.808;2023-05-25T02:44:44;102163.69;;;19.56;50.48
62617;BME280;62539;51.190;6.808;2023-05-25T02:47:16;102169.84;;;19.55;50.60
62617;BME280;62539;51.190;6.808;2023-05-25T02:49:43;102164.63;;;19.53;50.57
62617;BME280;62539;51.190;6.808;2023-05-25T02:52:09;102166.41;;;19.50;50.73
62617;BME280;62539;51.190;6.808;2023-05-25T02:54:35;102172.56;;;19.49;50.90
62617;BME280;62539;51.190;6.808;2023-05-25T02:57:02;102176.09;;;19.48;50.72
62617;BME280;62539;51.190;6.808;2023-05-25T02:59:28;102170.88;;;19.46;50.82
62617;BME280;62539;51.190;6.808;2023-05-25T03:01:54;102179.66;;;19.45;50.77
62617;BME280;62539;51.190;6.808;2023-05-25T03:04:19;102175.25;;;19.46;50.60
62617;BME280;62539;51.190;6.808;2023-05-25T03:06:46;102180.53;;;19.46;50.79
62617;BME280;62539;51.190;6.808;2023-05-25T03:09:11;102179.66;;;19.45;50.75
62617;BME280;62539;51.190;6.808;2023-05-25T03:11:37;102178.78;;;19.45;50.67
62617;BME280;62539;51.190;6.808;2023-05-25T03:14:03;102194.56;;;19.45;50.82
62617;BME280;62539;51.190;6.808;2023-05-25T03:16:29;102193.72;;;19.44;50.70
62617;BME280;62539;51.190;6.808;2023-05-25T03:18:55;102191.09;;;19.43;50.76
62617;BME280;62539;51.190;6.808;2023-05-25T03:21:20;102196.34;;;19.43;50.82
62617;BME280;62539;51.190;6.808;2023-05-25T03:23:47;102199.88;;;19.42;50.75
62617;BME280;62539;51.190;6.808;2023-05-25T03:26:14;102207.81;;;19.40;50.85
62617;BME280;62539;51.190;6.808;2023-05-25T03:28:39;102199.94;;;19.38;50.83
62617;BME280;62539;51.190;6.808;2023-05-25T03:31:05;102199.03;;;19.39;50.79
62617;BME280;62539;51.190;6.808;2023-05-25T03:33:30;102193.81;;;19.38;50.83
62617;BME280;62539;51.190;6.808;2023-05-25T03:35:57;102200.81;;;19.37;50.87
62617;BME280;62539;51.190;6.808;2023-05-25T03:38:22;102193.81;;;19.38;50.92
62617;BME280;62539;51.190;6.808;2023-05-25T03:40:48;102192.94;;;19.37;51.10
62617;BME280;62539;51.190;6.808;2023-05-25T03:43:13;102196.44;;;19.36;50.86
62617;BME280;62539;51.190;6.808;2023-05-25T03:45:38;102204.38;;;19.35;51.10
62617;BME280;62539;51.190;6.808;2023-05-25T03:48:04;102206.13;;;19.34;51.06
62617;BME280;62539;51.190;6.808;2023-05-25T03:50:30;102207.03;;;19.33;51.34
62617;BME280;62539;51.190;6.808;2023-05-25T03:52:55;102202.66;;;19.34;51.13
62617;BME280;62539;51.190;6.808;2023-05-25T03:55:21;102207.91;;;19.34;51.25
62617;BME280;62539;51.190;6.808;2023-05-25T03:57:46;102206.16;;;19.33;51.37
62617;BME280;62539;51.190;6.808;2023-05-25T04:00:12;102209.66;;;19.33;51.20
62617;BME280;62539;51.190;6.808;2023-05-25T04:02:38;102215.81;;;19.32;51.21
62617;BME280;62539;51.190;6.808;2023-05-25T04:05:04;102214.06;;;19.31;51.11
62617;BME280;62539;51.190;6.808;2023-05-25T04:07:29;102215.81;;;19.32;51.42
62617;BME280;62539;51.190;6.808;2023-05-25T04:09:55;102221.06;;;19.32;51.41
62617;BME280;62539;51.190;6.808;2023-05-25T04:12:23;102224.59;;;19.31;51.43
62617;BME280;62539;51.190;6.808;2023-05-25T04:14:50;102225.47;;;19.32;51.31
62617;BME280;62539;51.190;6.808;2023-05-25T04:17:16;102231.59;;;19.32;51.42
62617;BME280;62539;51.190;6.808;2023-05-25T04:19:43;102233.38;;;19.32;51.28
62617;BME280;62539;51.190;6.808;2023-05-25T04:22:08;102231.59;;;19.32;51.35
62617;BME280;62539;51.190;6.808;2023-05-25T04:24:33;102235.13;;;19.31;51.21
62617;BME280;62539;51.190;6.808;2023-05-25T04:26:59;102238.63;;;19.32;51.35
62617;BME280;62539;51.190;6.808;2023-05-25T04:29:26;102235.13;;;19.31;51.57
62617;BME280;62539;51.190;6.808;2023-05-25T04:31:52;102238.63;;;19.32;51.51
62617;BME280;62539;51.190;6.808;2023-05-25T04:34:19;102242.13;;;19.32;51.53
62617;BME280;62539;51.190;6.808;2023-05-25T04:36:45;102241.22;;;19.33;51.80
62617;BME280;62539;51.190;6.808;2023-05-25T04:39:11;102243.88;;;19.33;51.74
62617;BME280;62539;51.190;6.808;2023-05-25T04:41:37;102247.34;;;19.35;51.68
62617;BME280;62539;51.190;6.808;2023-05-25T04:44:03;102243.84;;;19.35;51.78
62617;BME280;62539;51.190;6.808;2023-05-25T04:46:29;102252.59;;;19.35;51.91
62617;BME280;62539;51.190;6.808;2023-05-25T04:48:56;102259.59;;;19.36;51.85
62617;BME280;62539;51.190;6.808;2023-05-25T04:51:21;102259.59;;;19.36;51.96
62617;BME280;62539;51.190;6.808;2023-05-25T04:53:47;102261.34;;;19.37;51.94
62617;BME280;62539;51.190;6.808;2023-05-25T04:56:13;102257.81;;;19.38;52.01
62617;BME280;62539;51.190;6.808;2023-05-25T04:58:38;102264.81;;;19.39;52.07
62617;BME280;62539;51.190;6.808;2023-05-25T05:01:06;102265.72;;;19.40;52.21
62617;BME280;62539;51.190;6.808;2023-05-25T05:03:32;102264.81;;;19.39;52.33
62617;BME280;62539;51.190;6.808;2023-05-25T05:05:57;102273.56;;;19.42;52.32
62617;BME280;62539;51.190;6.808;2023-05-25T05:08:22;102275.31;;;19.43;52.29
62617;BME280;62539;51.190;6.808;2023-05-25T05:10:48;102276.19;;;19.43;52.39
62617;BME280;62539;51.190;6.808;2023-05-25T05:13:14;102272.69;;;19.44;52.69
62617;BME280;62539;51.190;6.808;2023-05-25T05:15:39;102275.25;;;19.46;52.85
62617;BME280;62539;51.190;6.808;2023-05-25T05:18:05;102269.16;;;19.44;52.51
62617;BME280;62539;51.190;6.808;2023-05-25T05:20:32;102271.81;;;19.42;52.01
62617;BME280;62539;51.190;6.808;2023-05-25T05:22:58;102274.47;;;19.41;51.76
62617;BME280;62539;51.190;6.808;2023-05-25T05:25:23;102279.84;;;19.33;50.67
62617;BME280;62539;51.190;6.808;2023-05-25T05:27:48;102277.38;;;19.19;50.48
62617;BME280;62539;51.190;6.808;2023-05-25T05:30:14;102281.06;;;19.07;49.94
62617;BME280;62539;51.190;6.808;2023-05-25T05:32:40;102271.50;;;18.95;50.02
62617;BME280;62539;51.190;6.808;2023-05-25T05:35:05;102277.78;;;18.85;50.25
62617;BME280;62539;51.190;6.808;2023-05-25T05:37:31;102277.91;;;18.72;49.53
62617;BME280;62539;51.190;6.808;2023-05-25T05:39:56;102287.84;;;18.48;50.09
62617;BME280;62539;51.190;6.808;2023-05-25T05:42:22;102288.81;;;18.38;51.37
62617;BME280;62539;51.190;6.808;2023-05-25T05:44:47;102290.53;;;18.42;51.32
62617;BME280;62539;51.190;6.808;2023-05-25T05:47:13;102297.47;;;18.49;50.88
62617;BME280;62539;51.190;6.808;2023-05-25T05:49:38;102295.72;;;18.48;50.68
62617;BME280;62539;51.190;6.808;2023-05-25T05:52:04;102296.56;;;18.49;50.62
62617;BME280;62539;51.190;6.808;2023-05-25T05:54:29;102294.81;;;18.51;50.74
62617;BME280;62539;51.190;6.808;2023-05-25T05:56:56;102294.75;;;18.56;50.72
62617;BME280;62539;51.190;6.808;2023-05-25T05:59:21;102300.84;;;18.59;50.37
62617;BME280;62539;51.190;6.808;2023-05-25T06:01:47;102306.03;;;18.64;50.25
62617;BME280;62539;51.190;6.808;2023-05-25T06:04:12;102304.28;;;18.66;50.24
62617;BME280;62539;51.190;6.808;2023-05-25T06:06:39;102312.13;;;18.69;50.09
62617;BME280;62539;51.190;6.808;2023-05-25T06:09:06;102308.63;;;18.67;50.15
62617;BME280;62539;51.190;6.808;2023-05-25T06:11:33;102309.53;;;18.66;50.42
62617;BME280;62539;51.190;6.808;2023-05-25T06:14:01;102315.78;;;18.54;50.56
62617;BME280;62539;51.190;6.808;2023-05-25T06:16:27;102325.59;;;18.38;50.93
62617;BME280;62539;51.190;6.808;2023-05-25T06:18:53;102321.31;;;18.23;51.53
62617;BME280;62539;51.190;6.808;2023-05-25T06:21:18;102316.09;;;18.21;52.60
62617;BME280;62539;51.190;6.808;2023-05-25T06:23:43;102320.41;;;18.32;52.73
62617;BME280;62539;51.190;6.808;2023-05-25T06:26:09;102325.56;;;18.41;52.22
62617;BME280;62539;51.190;6.808;2023-05-25T06:28:35;102325.63;;;18.35;52.03
62617;BME280;62539;51.190;6.808;2023-05-25T06:31:00;102322.19;;;18.25;52.27
62617;BME280;62539;51.190;6.808;2023-05-25T06:33:26;102328.41;;;18.15;52.32
62617;BME280;62539;51.190;6.808;2023-05-25T06:35:51;102324.09;;;18.06;52.94
62617;BME280;62539;51.190;6.808;2023-05-25T06:38:20;102318.88;;;17.97;52.86
62617;BME280;62539;51.190;6.808;2023-05-25T06:40:46;102318.03;;;17.90;53.17
62617;BME280;62539;51.190;6.808;2023-05-25T06:43:11;102331.22;;;17.85;53.24
62617;BME280;62539;51.190;6.808;2023-05-25T06:45:36;102336.47;;;17.85;53.37
62617;BME280;62539;51.190;6.808;2023-05-25T06:48:02;102332.97;;;17.86;53.26
62617;BME280;62539;51.190;6.808;2023-05-25T06:50:27;102339.06;;;17.87;53.68
62617;BME280;62539;51.190;6.808;2023-05-25T06:52:53;102343.44;;;17.88;53.96
62617;BME280;62539;51.190;6.808;2023-05-25T06:55:18;102346.94;;;17.87;54.06
62617;BME280;62539;51.190;6.808;2023-05-25T06:57:43;102346.94;;;17.88;53.68
62617;BME280;62539;51.190;6.808;2023-05-25T07:00:10;102353.06;;;17.89;53.90
62617;BME280;62539;51.190;6.808;2023-05-25T07:02:36;102343.44;;;17.89;53.91
62617;BME280;62539;51.190;6.808;2023-05-25T07:05:02;102346.94;;;17.91;53.90
62617;BME280;62539;51.190;6.808;2023-05-25T07:07:31;102345.16;;;17.93;53.67
62617;BME280;62539;51.190;6.808;2023-05-25T07:09:57;102346.91;;;17.93;53.36
62617;BME280;62539;51.190;6.808;2023-05-25T07:12:22;102345.16;;;17.93;53.56
62617;BME280;62539;51.190;6.808;2023-05-25T07:14:48;102353.03;;;17.93;53.44
62617;BME280;62539;51.190;6.808;2023-05-25T07:17:14;102350.41;;;17.95;54.02
62617;BME280;62539;51.190;6.808;2023-05-25T07:19:40;102352.13;;;17.96;53.79
62617;BME280;62539;51.190;6.808;2023-05-25T07:22:10;102358.25;;;17.98;53.65
62617;BME280;62539;51.190;6.808;2023-05-25T07:24:35;102353.03;;;18.00;53.59
62617;BME280;62539;51.190;6.808;2023-05-25T07:27:01;102360.00;;;18.02;53.14
62617;BME280;62539;51.190;6.808;2023-05-25T07:29:27;102353.88;;;18.05;53.91
62617;BME280;62539;51.190;6.808;2023-05-25T07:31:53;102352.97;;;18.09;53.69
62617;BME280;62539;51.190;6.808;2023-05-25T07:34:18;102362.56;;;18.13;53.13
62617;BME280;62539;51.190;6.808;2023-05-25T07:36:44;102359.03;;;18.17;53.81
62617;BME280;62539;51.190;6.808;2023-05-25T07:39:10;102361.63;;;18.22;53.55
62617;BME280;62539;51.190;6.808;2023-05-25T07:41:36;102361.59;;;18.25;53.30
62617;BME280;62539;51.190;6.808;2023-05-25T07:44:02;102365.94;;;18.29;53.11
62617;BME280;62539;51.190;6.808;2023-05-25T07:46:28;102359.78;;;18.35;53.09
62617;BME280;62539;51.190;6.808;2023-05-25T07:48:53;102367.63;;;18.38;53.42
62617;BME280;62539;51.190;6.808;2023-05-25T07:51:20;102371.13;;;18.40;53.24
62617;BME280;62539;51.190;6.808;2023-05-25T07:53:47;102364.09;;;18.42;52.50
62617;BME280;62539;51.190;6.808;2023-05-25T07:56:13;102362.31;;;18.44;52.79
62617;BME280;62539;51.190;6.808;2023-05-25T07:58:39;102357.03;;;18.47;52.49
62617;BME280;62539;51.190;6.808;2023-05-25T08:01:04;102368.41;;;18.49;52.62
62617;BME280;62539;51.190;6.808;2023-05-25T08:03:30;102370.13;;;18.52;52.22
62617;BME280;62539;51.190;6.808;2023-05-25T08:05:55;102369.25;;;18.53;52.66
62617;BME280;62539;51.190;6.808;2023-05-25T08:08:21;102373.59;;;18.57;52.24
62617;BME280;62539;51.190;6.808;2023-05-25T08:10:46;102372.66;;;18.60;51.96
62617;BME280;62539;51.190;6.808;2023-05-25T08:13:12;102368.25;;;18.65;51.40
62617;BME280;62539;51.190;6.808;2023-05-25T08:15:37;102365.59;;;18.68;52.18
62617;BME280;62539;51.190;6.808;2023-05-25T08:18:02;102370.78;;;18.74;52.32
62617;BME280;62539;51.190;6.808;2023-05-25T08:20:29;102366.34;;;18.81;52.00
62617;BME280;62539;51.190;6.808;2023-05-25T08:22:54;102363.63;;;18.89;51.55
62617;BME280;62539;51.190;6.808;2023-05-25T08:25:20;102365.31;;;18.96;51.99
62617;BME280;62539;51.190;6.808;2023-05-25T08:27:46;102365.25;;;19.02;50.75
62617;BME280;62539;51.190;6.808;2023-05-25T08:30:11;102367.91;;;19.04;50.64
62617;BME280;62539;51.190;6.808;2023-05-25T08:32:37;102365.22;;;19.05;50.31
62617;BME280;62539;51.190;6.808;2023-05-25T08:35:02;102369.63;;;19.03;50.84
62617;BME280;62539;51.190;6.808;2023-05-25T08:37:30;102373.13;;;19.07;51.21
62617;BME280;62539;51.190;6.808;2023-05-25T08:39:56;102372.22;;;19.08;50.71
62617;BME280;62539;51.190;6.808;2023-05-25T08:42:23;102374.84;;;19.09;50.35
62617;BME280;62539;51.190;6.808;2023-05-25T08:44:48;102381.84;;;19.10;50.27
62617;BME280;62539;51.190;6.808;2023-05-25T08:47:15;102385.31;;;19.13;50.65
62617;BME280;62539;51.190;6.808;2023-05-25T08:49:43;102381.78;;;19.14;50.73
62617;BME280;62539;51.190;6.808;2023-05-25T08:52:12;102374.75;;;19.16;50.35
62617;BME280;62539;51.190;6.808;2023-05-25T08:54:42;102372.13;;;19.17;50.80
62617;BME280;62539;51.190;6.808;2023-05-25T08:57:44;102378.22;;;19.22;50.80
62617;BME280;62539;51.190;6.808;2023-05-25T09:00:20;102373.72;;;19.29;51.05
62617;BME280;62539;51.190;6.808;2023-05-25T09:05:56;102376.28;;;19.37;49.72
62617;BME280;62539;51.190;6.808;2023-05-25T09:08:22;102378.03;;;19.38;49.36
62617;BME280;62539;51.190;6.808;2023-05-25T09:10:49;102382.41;;;19.39;50.18
62617;BME280;62539;51.190;6.808;2023-05-25T09:13:16;102377.94;;;19.43;49.76
62617;BME280;62539;51.190;6.808;2023-05-25T09:15:42;102377.91;;;19.47;49.48
62617;BME280;62539;51.190;6.808;2023-05-25T09:18:08;102378.69;;;19.54;49.43
62617;BME280;62539;51.190;6.808;2023-05-25T09:20:33;102386.53;;;19.57;49.36
62617;BME280;62539;51.190;6.808;2023-05-25T09:22:59;102382.13;;;19.59;49.13
62617;BME280;62539;51.190;6.808;2023-05-25T09:25:26;102383.88;;;19.62;48.79
62617;BME280;62539;51.190;6.808;2023-05-25T09:27:54;102392.63;;;19.62;48.54
62617;BME280;62539;51.190;6.808;2023-05-25T09:30:24;102383.78;;;19.66;48.38
62617;BME280;62539;51.190;6.808;2023-05-25T09:32:51;102389.91;;;19.68;48.21
62617;BME280;62539;51.190;6.808;2023-05-25T09:35:18;102389.91;;;19.70;47.94
62617;BME280;62539;51.190;6.808;2023-05-25T09:37:43;102392.44;;;19.75;48.13
62617;BME280;62539;51.190;6.808;2023-05-25T09:40:09;102395.88;;;19.80;47.75
62617;BME280;62539;51.190;6.808;2023-05-25T09:42:36;102386.19;;;19.82;47.50
62617;BME280;62539;51.190;6.808;2023-05-25T09:45:03;102381.78;;;19.84;47.42
62617;BME280;62539;51.190;6.808;2023-05-25T09:47:30;102389.63;;;19.89;47.03
62617;BME280;62539;51.190;6.808;2023-05-25T09:49:56;102383.47;;;19.91;46.93
62617;BME280;62539;51.190;6.808;2023-05-25T09:52:22;102391.31;;;19.96;46.90
62617;BME280;62539;51.190;6.808;2023-05-25T09:54:49;102384.22;;;20.01;46.76
62617;BME280;62539;51.190;6.808;2023-05-25T09:57:17;102389.44;;;20.04;46.60
62617;BME280;62539;51.190;6.808;2023-05-25T09:59:44;102392.00;;;20.09;46.43
62617;BME280;62539;51.190;6.808;2023-05-25T10:02:11;102398.97;;;20.13;46.29
62617;BME280;62539;51.190;6.808;2023-05-25T10:04:37;102396.28;;;20.16;46.12
62617;BME280;62539;51.190;6.808;2023-05-25T10:07:04;102385.69;;;20.19;45.98
62617;BME280;62539;51.190;6.808;2023-05-25T10:09:30;102394.44;;;20.23;46.24
62617;BME280;62539;51.190;6.808;2023-05-25T10:12:00;102392.53;;;20.31;46.19
62617;BME280;62539;51.190;6.808;2023-05-25T10:14:27;102404.63;;;20.43;46.20
62617;BME280;62539;51.190;6.808;2023-05-25T10:16:55;102400.09;;;20.51;45.97
62617;BME280;62539;51.190;6.808;2023-05-25T10:19:37;102411.38;;;20.60;45.80
62617;BME280;62539;51.190;6.808;2023-05-25T10:22:13;102393.72;;;20.65;45.97
62617;BME280;62539;51.190;6.808;2023-05-25T10:25:09;102398.84;;;20.74;46.05
62617;BME280;62539;51.190;6.808;2023-05-25T10:28:02;102389.88;;;20.84;46.27
62617;BME280;62539;51.190;6.808;2023-05-25T10:30:32;102398.47;;;20.96;46.12
62617;BME280;62539;51.190;6.808;2023-05-25T10:33:01;102402.72;;;21.03;45.82
62617;BME280;62539;51.190;6.808;2023-05-25T10:35:27;102407.03;;;21.09;45.60
62617;BME280;62539;51.190;6.808;2023-05-25T10:37:54;102408.72;;;21.11;45.60
62617;BME280;62539;51.190;6.808;2023-05-25T10:40:21;102410.41;;;21.17;45.65
62617;BME280;62539;51.190;6.808;2023-05-25T10:42:48;102400.56;;;21.24;45.66
62617;BME280;62539;51.190;6.808;2023-05-25T10:45:15;102412.81;;;21.26;45.66
62617;BME280;62539;51.190;6.808;2023-05-25T10:47:42;102409.31;;;21.26;45.23
62617;BME280;62539;51.190;6.808;2023-05-25T10:50:26;102425.16;;;21.26;45.15
62617;BME280;62539;51.190;6.808;2023-05-25T10:53:04;102408.56;;;21.21;44.76
62617;BME280;62539;51.190;6.808;2023-05-25T10:58:17;102410.56;;;21.08;44.60
62617;BME280;62539;51.190;6.808;2023-05-25T11:00:57;102412.44;;;21.01;44.55
62617;BME280;62539;51.190;6.808;2023-05-25T11:09:22;102412.56;;;21.40;44.10
62617;BME280;62539;51.190;6.808;2023-05-25T11:17:08;102420.63;;;21.77;44.10
62617;BME280;62539;51.190;6.808;2023-05-25T11:22:19;102421.22;;;21.90;43.63
62617;BME280;62539;51.190;6.808;2023-05-25T11:24:46;102413.13;;;21.97;43.31
62617;BME280;62539;51.190;6.808;2023-05-25T11:27:22;102416.59;;;21.99;43.41
62617;BME280;62539;51.190;6.808;2023-05-25T11:29:54;102419.88;;;22.11;43.15
62617;BME280;62539;51.190;6.808;2023-05-25T11:32:23;102428.56;;;22.16;43.51
62617;BME280;62539;51.190;6.808;2023-05-25T11:34:54;102424.03;;;22.21;43.59
62617;BME280;62539;51.190;6.808;2023-05-25T11:37:22;102414.91;;;22.33;43.20
62617;BME280;62539;51.190;6.808;2023-05-25T11:39:51;102414.69;;;22.42;43.53
62617;BME280;62539;51.190;6.808;2023-05-25T11:42:21;102418.94;;;22.51;43.20
62617;BME280;62539;51.190;6.808;2023-05-25T11:44:48;102414.25;;;22.61;43.14
62617;BME280;62539;51.190;6.808;2023-05-25T11:47:14;102416.66;;;22.70;43.16
62617;BME280;62539;51.190;6.808;2023-05-25T11:49:45;102415.59;;;22.78;43.13
62617;BME280;62539;51.190;6.808;2023-05-25T11:52:14;102407.53;;;22.82;43.13
62617;BME280;62539;51.190;6.808;2023-05-25T11:54:42;102414.25;;;22.96;42.81
62617;BME280;62539;51.190;6.808;2023-05-25T11:57:21;102407.81;;;23.04;42.07
62617;BME280;62539;51.190;6.808;2023-05-25T12:02:21;102408.22;;;23.22;42.51
62617;BME280;62539;51.190;6.808;2023-05-25T12:04:52;102402.66;;;23.33;42.31
62617;BME280;62539;51.190;6.808;2023-05-25T12:07:24;102402.56;;;23.36;42.15
62617;BME280;62539;51.190;6.808;2023-05-25T12:09:51;102412.78;;;23.48;42.42
62617;BME280;62539;51.190;6.808;2023-05-25T12:12:28;102402.69;;;23.61;41.96
62617;BME280;62539;51.190;6.808;2023-05-25T12:14:53;102405.03;;;23.72;41.91
62617;BME280;62539;51.190;6.808;2023-05-25T12:17:20;102411.88;;;23.80;41.90
62617;BME280;62539;51.190;6.808;2023-05-25T12:19:46;102408.78;;;23.93;41.95
62617;BME280;62539;51.190;6.808;2023-05-25T12:22:12;102402.22;;;24.05;41.82
62617;BME280;62539;51.190;6.808;2023-05-25T12:24:39;102409.38;;;24.03;42.17
62617;BME280;62539;51.190;6.808;2023-05-25T12:27:15;102402.50;;;24.25;41.10
62617;BME280;62539;51.190;6.808;2023-05-25T12:29:46;102406.53;;;24.36;41.73
62617;BME280;62539;51.190;6.808;2023-05-25T12:32:12;102405.28;;;24.47;41.17
62617;BME280;62539;51.190;6.808;2023-05-25T12:34:37;102398.59;;;24.62;41.40
62617;BME280;62539;51.190;6.808;2023-05-25T12:37:02;102402.53;;;24.77;40.98
62617;BME280;62539;51.190;6.808;2023-05-25T12:41:54;102394.44;;;25.05;40.89
62617;BME280;62539;51.190;6.808;2023-05-25T12:44:25;102395.19;;;25.09;41.29
62617;BME280;62539;51.190;6.808;2023-05-25T12:47:17;102387.34;;;25.06;41.18
62617;BME280;62539;51.190;6.808;2023-05-25T12:50:11;102387.47;;;25.27;40.89
62617;BME280;62539;51.190;6.808;2023-05-25T12:52:47;102387.47;;;25.50;40.59
62617;BME280;62539;51.190;6.808;2023-05-25T12:55:26;102385.50;;;25.32;40.95
62617;BME280;62539;51.190;6.808;2023-05-25T12:58:03;102381.06;;;25.32;40.55
62617;BME280;62539;51.190;6.808;2023-05-25T13:00:33;102381.00;;;25.10;41.36
62617;BME280;62539;51.190;6.808;2023-05-25T13:03:00;102383.28;;;24.95;41.36
62617;BME280;62539;51.190;6.808;2023-05-25T13:05:30;102379.16;;;25.12;41.19
62617;BME280;62539;51.190;6.808;2023-05-25T13:08:01;102383.28;;;24.95;40.78
62617;BME280;62539;51.190;6.808;2023-05-25T13:10:28;102380.34;;;24.79;41.75
62617;BME280;62539;51.190;6.808;2023-05-25T13:12:56;102387.81;;;24.66;41.17
62617;BME280;62539;51.190;6.808;2023-05-25T13:15:22;102382.59;;;24.90;41.15
62617;BME280;62539;51.190;6.808;2023-05-25T13:17:50;102386.16;;;24.89;41.71